Time;durP1;ratioP1;P1;durP2;ratioP2;P2;SDS_P1;SDS_P2;PMS_P1;PMS_P2;Temp;Humidity;BMP_temperature;BMP_pressure;BME280_temperature;BME280_humidity;BME280_pressure;Samples;Min_cycle;Max_cycle;Signal;HPM_P1;HPM_P2
2022/07/17 00:00:47;;;;;;;0.60;0.60;;;8.20;99.90;;;;;;5032575;28;20679;-66
2022/07/17 00:03:15;;;;;;;0.60;0.60;;;8.20;99.90;;;;;;5032419;28;20665;-67
2022/07/17 00:05:41;;;;;;;0.50;0.50;;;8.20;99.90;;;;;;5032236;28;20666;-66
2022/07/17 00:08:08;;;;;;;0.57;0.57;;;8.20;99.90;;;;;;5032638;28;20586;-67
2022/07/17 00:10:35;;;;;;;0.60;0.60;;;8.10;99.90;;;;;;5032194;28;20194;-67
2022/07/17 00:13:01;;;;;;;0.60;0.60;;;8.10;99.90;;;;;;5031809;28;20193;-67
2022/07/17 00:15:27;;;;;;;0.57;0.57;;;8.10;99.90;;;;;;5031746;28;20194;-67
2022/07/17 00:17:53;;;;;;;0.60;0.60;;;8.00;99.90;;;;;;5031549;28;20272;-67
2022/07/17 00:20:18;;;;;;;0.70;0.70;;;8.00;99.90;;;;;;5031681;28;20217;-66
2022/07/17 00:22:44;;;;;;;0.70;0.70;;;7.90;99.90;;;;;;5046585;28;20656;-67
2022/07/17 00:25:10;;;;;;;0.70;0.70;;;7.90;99.90;;;;;;5051633;28;20308;-66
2022/07/17 00:27:38;;;;;;;0.60;0.60;;;7.90;99.90;;;;;;5033891;28;20612;-66
2022/07/17 00:30:04;;;;;;;0.60;0.60;;;7.80;99.90;;;;;;5051636;28;20236;-66
2022/07/17 00:32:30;;;;;;;0.60;0.60;;;7.80;99.90;;;;;;5051764;28;20213;-67
2022/07/17 00:34:57;;;;;;;0.60;0.60;;;7.80;99.90;;;;;;5051723;28;20720;-66
2022/07/17 00:37:23;;;;;;;0.60;0.60;;;7.80;99.90;;;;;;5050862;28;20255;-67
2022/07/17 00:39:48;;;;;;;0.80;0.80;;;7.70;99.90;;;;;;5051838;28;20665;-66
2022/07/17 00:42:15;;;;;;;0.63;0.63;;;7.70;99.90;;;;;;5051428;28;20193;-66
2022/07/17 00:44:42;;;;;;;0.80;0.80;;;7.70;99.90;;;;;;5051801;28;20238;-66
2022/07/17 00:47:14;;;;;;;1.15;1.05;;;7.70;99.90;;;;;;5051479;28;20189;-66
2022/07/17 00:49:40;;;;;;;0.60;0.60;;;7.70;99.90;;;;;;5051578;28;20216;-66
2022/07/17 00:52:08;;;;;;;0.70;0.70;;;7.60;99.90;;;;;;5053842;28;20202;-66
2022/07/17 00:54:42;;;;;;;0.70;0.70;;;7.60;99.90;;;;;;5055553;28;20189;-66
2022/07/17 00:57:11;;;;;;;0.60;0.60;;;7.60;99.90;;;;;;5055590;28;20224;-66
2022/07/17 00:59:39;;;;;;;0.63;0.63;;;7.50;99.90;;;;;;5055411;28;20256;-66
2022/07/17 01:02:13;;;;;;;0.60;0.60;;;7.50;99.90;;;;;;5037553;28;20205;-66
2022/07/17 01:04:40;;;;;;;0.70;0.70;;;7.40;99.90;;;;;;5055387;28;20246;-66
2022/07/17 01:07:07;;;;;;;0.60;0.60;;;7.40;99.90;;;;;;5055192;28;20194;-66
2022/07/17 01:09:33;;;;;;;0.70;0.70;;;7.30;99.90;;;;;;5054932;28;20206;-66
2022/07/17 01:12:00;;;;;;;0.57;0.57;;;7.30;99.90;;;;;;5055245;28;20201;-65
2022/07/17 01:14:27;;;;;;;9.85;3.83;;;7.30;99.90;;;;;;5050610;28;20269;-66
2022/07/17 01:16:54;;;;;;;0.60;0.60;;;7.30;99.90;;;;;;5035220;28;20216;-66
2022/07/17 01:19:21;;;;;;;0.68;0.68;;;7.40;99.90;;;;;;5034908;28;20197;-66
2022/07/17 01:21:49;;;;;;;0.70;0.70;;;7.40;99.90;;;;;;5055113;28;20250;-66
2022/07/17 01:24:16;;;;;;;0.60;0.60;;;7.40;99.90;;;;;;5054924;28;20196;-66
2022/07/17 01:26:46;;;;;;;0.70;0.70;;;7.40;99.90;;;;;;5054478;28;20200;-66
2022/07/17 01:29:14;;;;;;;0.60;0.60;;;7.40;99.90;;;;;;5054635;28;20703;-66
2022/07/17 01:31:41;;;;;;;0.60;0.60;;;7.50;99.90;;;;;;5054709;28;20278;-66
2022/07/17 01:34:08;;;;;;;0.70;0.70;;;7.50;99.90;;;;;;5055184;28;20217;-66
2022/07/17 01:36:35;;;;;;;0.60;0.60;;;7.50;99.90;;;;;;5054826;28;20197;-66
2022/07/17 01:39:02;;;;;;;0.60;0.60;;;7.50;99.90;;;;;;5054747;28;20205;-66
2022/07/17 01:41:28;;;;;;;0.60;0.60;;;7.50;99.90;;;;;;5054440;28;20640;-66
2022/07/17 01:43:53;;;;;;;0.70;0.70;;;7.40;99.90;;;;;;5054813;28;20197;-66
2022/07/17 01:46:19;;;;;;;0.60;0.60;;;7.40;99.90;;;;;;5036619;28;20203;-66
2022/07/17 01:48:45;;;;;;;0.70;0.70;;;7.40;99.90;;;;;;5054725;28;20658;-66
2022/07/17 01:51:10;;;;;;;0.60;0.60;;;7.30;99.90;;;;;;5055012;28;20194;-66
2022/07/17 01:53:36;;;;;;;0.60;0.60;;;7.30;99.90;;;;;;5054753;28;20190;-67
2022/07/17 01:56:02;;;;;;;0.60;0.60;;;7.30;99.90;;;;;;5054456;28;20780;-67
2022/07/17 01:58:28;;;;;;;0.60;0.60;;;7.20;99.90;;;;;;5054084;28;20259;-66
2022/07/17 02:00:54;;;;;;;0.70;0.70;;;7.10;99.90;;;;;;5052145;28;20229;-66
2022/07/17 02:03:20;;;;;;;0.60;0.60;;;7.10;99.90;;;;;;5052996;28;20197;-66
2022/07/17 02:05:46;;;;;;;0.60;0.60;;;7.10;99.90;;;;;;5053999;28;20559;-66
2022/07/17 02:08:12;;;;;;;0.60;0.60;;;7.10;99.90;;;;;;5053660;28;20201;-66
2022/07/17 02:10:38;;;;;;;0.63;0.63;;;7.10;99.90;;;;;;5050020;28;21348;-66
2022/07/17 02:13:04;;;;;;;0.60;0.60;;;7.10;99.90;;;;;;5034329;28;20206;-66
2022/07/17 02:15:30;;;;;;;0.70;0.70;;;7.10;99.90;;;;;;5033421;28;20194;-67
2022/07/17 02:17:56;;;;;;;0.60;0.60;;;7.10;99.90;;;;;;5053670;28;20212;-66
2022/07/17 02:20:22;;;;;;;0.70;0.70;;;7.10;99.90;;;;;;5054086;28;20193;-66
2022/07/17 02:22:48;;;;;;;0.65;0.65;;;7.00;99.90;;;;;;5054089;28;20610;-67
2022/07/17 02:25:14;;;;;;;0.70;0.70;;;7.10;99.90;;;;;;5053678;28;20229;-66
2022/07/17 02:27:40;;;;;;;0.70;0.70;;;7.10;99.90;;;;;;5053776;28;20739;-66
2022/07/17 02:30:15;;;;;;;0.70;0.70;;;7.10;99.90;;;;;;5053582;28;20206;-66
2022/07/17 02:32:41;;;;;;;0.60;0.60;;;7.10;99.90;;;;;;5053757;28;20189;-66
2022/07/17 02:35:08;;;;;;;0.60;0.60;;;7.20;99.90;;;;;;5053861;28;20198;-67
2022/07/17 02:37:35;;;;;;;0.60;0.60;;;7.20;99.90;;;;;;5034989;28;20198;-67
2022/07/17 02:40:00;;;;;;;0.60;0.60;;;7.30;99.90;;;;;;5033805;28;20209;-67
2022/07/17 02:42:28;;;;;;;0.70;0.70;;;7.30;99.90;;;;;;5033525;28;20198;-67
2022/07/17 02:44:55;;;;;;;0.70;0.70;;;7.40;99.90;;;;;;5033768;28;20724;-67
2022/07/17 02:47:22;;;;;;;0.63;0.63;;;7.50;99.90;;;;;;5015647;28;20202;-67
2022/07/17 02:49:49;;;;;;;0.60;0.60;;;7.50;99.90;;;;;;5033514;28;20296;-66
2022/07/17 02:52:15;;;;;;;0.60;0.60;;;7.60;99.90;;;;;;5033854;28;20265;-67
2022/07/17 02:54:41;;;;;;;0.60;0.60;;;7.70;99.90;;;;;;5033429;28;20273;-67
2022/07/17 02:57:06;;;;;;;0.60;0.60;;;7.80;99.90;;;;;;5033241;28;20186;-67
2022/07/17 02:59:32;;;;;;;0.65;0.65;;;7.80;99.90;;;;;;5033106;28;20569;-68
2022/07/17 03:01:58;;;;;;;0.70;0.70;;;7.90;99.90;;;;;;5043649;28;20206;-66
2022/07/17 03:04:24;;;;;;;0.60;0.60;;;8.00;99.90;;;;;;5048718;28;20201;-66
2022/07/17 03:06:49;;;;;;;0.70;0.70;;;8.10;99.90;;;;;;5049362;28;20201;-67
2022/07/17 03:09:15;;;;;;;0.55;0.55;;;8.10;99.90;;;;;;5033212;28;20205;-67
2022/07/17 03:11:41;;;;;;;0.60;0.60;;;8.20;99.90;;;;;;5031812;28;20548;-67
2022/07/17 03:14:06;;;;;;;0.60;0.60;;;8.30;99.90;;;;;;5052733;28;20243;-67
2022/07/17 03:16:32;;;;;;;0.70;0.70;;;8.30;99.90;;;;;;5035044;28;20239;-67
2022/07/17 03:18:58;;;;;;;0.60;0.60;;;8.40;99.90;;;;;;5052955;28;20189;-67
2022/07/17 03:21:23;;;;;;;0.70;0.70;;;8.50;99.90;;;;;;5034822;28;20607;-67
2022/07/17 03:23:49;;;;;;;0.70;0.70;;;8.60;99.90;;;;;;5052887;28;20254;-67
2022/07/17 03:26:15;;;;;;;0.60;0.60;;;8.60;99.90;;;;;;5052699;28;20236;-67
2022/07/17 03:28:40;;;;;;;0.70;0.70;;;8.70;99.90;;;;;;5052546;28;20228;-67
2022/07/17 03:31:06;;;;;;;0.57;0.57;;;8.80;99.90;;;;;;5052810;28;20613;-67
2022/07/17 03:33:32;;;;;;;0.60;0.60;;;8.90;99.90;;;;;;5052298;28;20174;-67
2022/07/17 03:35:58;;;;;;;0.60;0.60;;;9.00;99.90;;;;;;5052656;28;20268;-67
2022/07/17 03:38:24;;;;;;;0.60;0.60;;;9.00;99.90;;;;;;5034331;28;20201;-67
2022/07/17 03:40:49;;;;;;;0.60;0.60;;;9.10;99.90;;;;;;5033976;28;20197;-67
2022/07/17 03:43:15;;;;;;;0.60;0.60;;;9.10;99.90;;;;;;5052419;28;20739;-67
2022/07/17 03:45:41;;;;;;;0.60;0.60;;;9.10;99.90;;;;;;5034335;28;20692;-67
2022/07/17 03:48:07;;;;;;;0.80;0.80;;;9.10;99.90;;;;;;5052656;28;20205;-68
2022/07/17 03:50:33;;;;;;;0.60;0.60;;;9.10;99.90;;;;;;5034034;28;20233;-67
2022/07/17 03:52:59;;;;;;;0.60;0.60;;;9.10;99.90;;;;;;5052357;28;20280;-68
2022/07/17 03:55:24;;;;;;;0.60;0.60;;;9.20;99.90;;;;;;5052133;28;20463;-67
2022/07/17 03:57:50;;;;;;;0.70;0.70;;;9.20;99.90;;;;;;5051644;28;20555;-67
2022/07/17 04:00:16;;;;;;;0.60;0.60;;;9.30;99.90;;;;;;5032252;28;20257;-67
2022/07/17 04:02:42;;;;;;;0.60;0.60;;;9.30;99.90;;;;;;5032072;28;20217;-67
2022/07/17 04:05:09;;;;;;;0.60;0.60;;;9.40;99.90;;;;;;5034181;28;20247;-68
2022/07/17 04:07:38;;;;;;;0.60;0.60;;;9.40;99.90;;;;;;5032130;28;20201;-67
2022/07/17 04:10:05;;;;;;;0.60;0.60;;;9.50;99.90;;;;;;5014305;28;20222;-67
2022/07/17 04:12:32;;;;;;;0.70;0.70;;;9.50;99.90;;;;;;5014089;28;20198;-67
2022/07/17 04:14:57;;;;;;;0.70;0.70;;;9.60;99.90;;;;;;5014379;28;20633;-68
2022/07/17 04:17:23;;;;;;;0.60;0.60;;;9.70;99.90;;;;;;5031733;28;20222;-67
2022/07/17 04:19:49;;;;;;;0.60;0.60;;;9.70;99.90;;;;;;5031378;28;20198;-67
2022/07/17 04:22:15;;;;;;;0.60;0.60;;;9.70;99.90;;;;;;5031828;28;20597;-68
2022/07/17 04:24:41;;;;;;;0.60;0.60;;;9.70;99.90;;;;;;5031538;28;20279;-67
2022/07/17 04:27:07;;;;;;;0.60;0.60;;;9.80;99.90;;;;;;5031209;28;20198;-67
2022/07/17 04:29:33;;;;;;;0.60;0.60;;;9.80;99.90;;;;;;5031500;28;20210;-67
2022/07/17 04:31:59;;;;;;;0.60;0.60;;;9.90;99.90;;;;;;5031745;28;20218;-67
2022/07/17 04:34:25;;;;;;;0.60;0.60;;;9.90;99.90;;;;;;5031611;28;20194;-67
2022/07/17 04:36:51;;;;;;;0.52;0.52;;;10.00;99.90;;;;;;5031849;28;20205;-68
2022/07/17 04:39:17;;;;;;;0.60;0.60;;;10.10;99.90;;;;;;5031608;28;20209;-68
2022/07/17 04:41:43;;;;;;;0.50;0.50;;;10.30;99.90;;;;;;5031694;28;20225;-67
2022/07/17 04:44:09;;;;;;;0.52;0.52;;;10.40;99.90;;;;;;5031495;28;20190;-68
2022/07/17 04:46:34;;;;;;;0.60;0.60;;;10.60;99.90;;;;;;5031412;28;20198;-67
2022/07/17 04:49:00;;;;;;;0.60;0.60;;;10.70;99.90;;;;;;5031562;28;20206;-67
2022/07/17 04:51:26;;;;;;;0.60;0.60;;;10.90;99.90;;;;;;5031415;28;20190;-68
2022/07/17 04:53:51;;;;;;;0.50;0.50;;;11.00;99.90;;;;;;5031687;28;20191;-68
2022/07/17 04:56:17;;;;;;;0.50;0.50;;;11.10;99.90;;;;;;5031517;28;20693;-67
2022/07/17 04:58:43;;;;;;;0.50;0.50;;;11.20;99.90;;;;;;5030974;28;20198;-67
2022/07/17 05:01:08;;;;;;;0.60;0.60;;;11.30;99.90;;;;;;5049686;28;20205;-68
2022/07/17 05:03:34;;;;;;;0.50;0.50;;;11.30;99.90;;;;;;5039521;28;20693;-67
2022/07/17 05:06:00;;;;;;;0.50;0.50;;;11.50;99.90;;;;;;5038541;28;20212;-68
2022/07/17 05:08:25;;;;;;;0.60;0.60;;;11.50;99.90;;;;;;5033249;28;20294;-68
2022/07/17 05:10:51;;;;;;;0.50;0.50;;;11.60;99.90;;;;;;5051302;28;20190;-68
2022/07/17 05:13:17;;;;;;;0.50;0.50;;;11.60;99.90;;;;;;5051451;28;20221;-68
2022/07/17 05:15:42;;;;;;;0.50;0.50;;;11.60;99.90;;;;;;5033446;28;20190;-67
2022/07/17 05:18:08;;;;;;;0.57;0.57;;;11.60;99.90;;;;;;5051394;28;20260;-67
2022/07/17 05:20:34;;;;;;;0.60;0.60;;;11.60;99.90;;;;;;5051044;28;20219;-68
2022/07/17 05:23:00;;;;;;;0.50;0.50;;;11.70;99.90;;;;;;5051264;28;20186;-67
2022/07/17 05:25:25;;;;;;;0.40;0.40;;;11.80;99.90;;;;;;5039565;28;20317;-68
2022/07/17 05:27:51;;;;;;;0.50;0.50;;;11.90;99.90;;;;;;5031715;28;20195;-68
2022/07/17 05:30:17;;;;;;;0.50;0.50;;;12.20;99.90;;;;;;5031264;28;20289;-68
2022/07/17 05:32:43;;;;;;;0.50;0.50;;;12.40;99.90;;;;;;5031155;28;20246;-67
2022/07/17 05:35:09;;;;;;;0.50;0.50;;;12.70;99.90;;;;;;5030673;28;20555;-68
2022/07/17 05:37:34;;;;;;;0.50;0.50;;;13.00;99.90;;;;;;5014151;28;20205;-68
2022/07/17 05:40:00;;;;;;;0.50;0.50;;;13.10;99.90;;;;;;5034781;28;20446;-69
2022/07/17 05:42:26;;;;;;;0.50;0.50;;;13.40;99.90;;;;;;5034742;28;20681;-69
2022/07/17 05:44:52;;;;;;;0.50;0.50;;;13.50;99.90;;;;;;5034861;28;20566;-69
2022/07/17 05:47:17;;;;;;;0.40;0.40;;;13.60;99.90;;;;;;5034621;28;20201;-68
2022/07/17 05:49:43;;;;;;;0.50;0.50;;;13.70;99.90;;;;;;5034490;28;20289;-68
2022/07/17 05:52:08;;;;;;;0.35;0.35;;;13.80;99.90;;;;;;5034585;28;20367;-68
2022/07/17 05:54:34;;;;;;;0.40;0.40;;;13.90;99.90;;;;;;5033981;28;20212;-68
2022/07/17 05:57:01;;;;;;;0.40;0.40;;;14.00;99.90;;;;;;5049335;28;20695;-68
2022/07/17 05:59:26;;;;;;;0.40;0.40;;;14.10;99.90;;;;;;5045141;28;20711;-69
2022/07/17 06:01:52;;;;;;;0.40;0.40;;;14.20;99.90;;;;;;5034354;28;20277;-69
2022/07/17 06:04:18;;;;;;;0.50;0.50;;;14.20;99.90;;;;;;5034176;28;20216;-69
2022/07/17 06:06:43;;;;;;;0.30;0.30;;;14.50;99.90;;;;;;5047034;28;20198;-69
2022/07/17 06:09:09;;;;;;;0.40;0.40;;;14.90;99.90;;;;;;5054215;28;20213;-68
2022/07/17 06:11:35;;;;;;;0.40;0.40;;;15.30;99.90;;;;;;5054648;28;20700;-69
2022/07/17 06:14:00;;;;;;;0.32;0.32;;;15.80;99.90;;;;;;5035711;28;20224;-69
2022/07/17 06:16:26;;;;;;;0.32;0.32;;;16.20;99.90;;;;;;5054007;28;20228;-70
2022/07/17 06:18:52;;;;;;;0.30;0.30;;;16.40;99.90;;;;;;5054063;28;20197;-69
2022/07/17 06:21:17;;;;;;;0.50;0.50;;;16.30;99.90;;;;;;5027725;28;20202;-69
2022/07/17 06:23:43;;;;;;;0.60;0.60;;;16.50;99.90;;;;;;5034228;28;20190;-70
2022/07/17 06:26:09;;;;;;;0.30;0.30;;;17.00;99.90;;;;;;5034413;28;20222;-69
2022/07/17 06:28:35;;;;;;;0.28;0.28;;;17.10;99.90;;;;;;5016582;28;20572;-70
2022/07/17 06:31:00;;;;;;;0.30;0.30;;;17.30;99.90;;;;;;5034668;28;20194;-70
2022/07/17 06:33:26;;;;;;;0.30;0.30;;;17.50;99.90;;;;;;5034324;28;20197;-70
2022/07/17 06:35:52;;;;;;;0.30;0.30;;;17.70;99.90;;;;;;5034280;28;20186;-68
2022/07/17 06:38:17;;;;;;;0.30;0.30;;;17.40;99.90;;;;;;5034080;28;20197;-68
2022/07/17 06:40:43;;;;;;;0.30;0.30;;;17.10;99.90;;;;;;5034277;28;20582;-69
2022/07/17 06:43:09;;;;;;;0.30;0.30;;;17.00;99.90;;;;;;5034303;28;20190;-69
2022/07/17 06:45:35;;;;;;;0.68;0.68;;;16.30;99.90;;;;;;5033939;28;20563;-68
2022/07/17 06:48:01;;;;;;;0.30;0.30;;;16.10;99.90;;;;;;5034538;28;20676;-69
2022/07/17 06:50:27;;;;;;;0.30;0.30;;;16.10;99.90;;;;;;5033527;28;20354;-68
2022/07/17 06:52:52;;;;;;;0.30;0.30;;;16.50;99.90;;;;;;5045659;28;20202;-71
2022/07/17 06:55:18;;;;;;;0.30;0.30;;;17.00;99.90;;;;;;5048171;28;20660;-69
2022/07/17 06:57:44;;;;;;;0.30;0.30;;;17.30;99.90;;;;;;5033831;28;20551;-69
2022/07/17 07:00:10;;;;;;;0.30;0.30;;;17.20;99.90;;;;;;5033573;28;20646;-68
2022/07/17 07:02:37;;;;;;;0.20;0.20;;;17.10;99.90;;;;;;5033499;28;20226;-70
2022/07/17 07:05:04;;;;;;;0.35;0.35;;;17.10;99.90;;;;;;5016063;28;20284;-70
2022/07/17 07:07:30;;;;;;;0.40;0.40;;;17.20;99.90;;;;;;5052956;28;20225;-71
2022/07/17 07:09:56;;;;;;;0.30;0.30;;;17.40;99.90;;;;;;5053395;28;20205;-69
2022/07/17 07:12:22;;;;;;;0.30;0.30;;;17.50;99.90;;;;;;5053389;28;20236;-70
2022/07/17 07:14:47;;;;;;;0.30;0.30;;;17.50;99.90;;;;;;5035821;28;20200;-70
2022/07/17 07:17:13;;;;;;;0.20;0.20;;;17.70;99.90;;;;;;5030286;28;20194;-70
2022/07/17 07:19:39;;;;;;;0.30;0.30;;;18.00;99.90;;;;;;5033389;28;20194;-70
2022/07/17 07:22:04;;;;;;;0.20;0.20;;;18.20;99.90;;;;;;5033570;28;20705;-70
2022/07/17 07:24:30;;;;;;;0.20;0.20;;;18.50;99.90;;;;;;5033573;28;20214;-70
2022/07/17 07:26:56;;;;;;;0.20;0.20;;;18.60;99.90;;;;;;5015893;28;20183;-69
2022/07/17 07:29:21;;;;;;;0.30;0.30;;;18.60;99.90;;;;;;5015424;28;20305;-71
2022/07/17 07:31:47;;;;;;;0.20;0.20;;;19.30;99.90;;;;;;5033147;28;20194;-71
2022/07/17 07:34:13;;;;;;;0.30;0.30;;;19.60;99.90;;;;;;5033125;28;20273;-72
2022/07/17 07:36:39;;;;;;;0.30;0.30;;;19.90;99.90;;;;;;5032849;28;20260;-72
2022/07/17 07:39:05;;;;;;;0.20;0.20;;;19.50;99.90;;;;;;5033151;28;20825;-73
2022/07/17 07:41:30;;;;;;;0.20;0.20;;;19.20;99.90;;;;;;5014890;28;20199;-72
2022/07/17 07:43:56;;;;;;;0.20;0.20;;;19.00;99.90;;;;;;5015867;28;20209;-72
2022/07/17 07:46:21;;;;;;;0.20;0.20;;;19.00;99.90;;;;;;5033010;28;20703;-73
2022/07/17 07:48:47;;;;;;;0.30;0.30;;;18.60;99.90;;;;;;5041804;28;20574;-74
2022/07/17 07:51:13;;;;;;;0.20;0.20;;;18.70;99.90;;;;;;5052707;28;20541;-72
2022/07/17 07:53:38;;;;;;;0.20;0.20;;;18.50;99.90;;;;;;5052445;28;20623;-72
2022/07/17 07:56:04;;;;;;;0.20;0.20;;;18.40;99.90;;;;;;5053166;28;20190;-72
2022/07/17 07:58:30;;;;;;;0.20;0.20;;;18.90;99.90;;;;;;5052895;28;20227;-73
2022/07/17 08:00:56;;;;;;;0.20;0.20;;;19.30;99.90;;;;;;5052195;28;20680;-73
2022/07/17 08:03:21;;;;;;;0.20;0.20;;;19.50;99.90;;;;;;5052478;28;20632;-73
2022/07/17 08:05:47;;;;;;;0.43;0.43;;;20.10;99.90;;;;;;5031181;28;20205;-73
2022/07/17 08:08:13;;;;;;;0.20;0.20;;;20.60;99.90;;;;;;5030981;28;20221;-73
2022/07/17 08:10:39;;;;;;;0.20;0.20;;;20.90;99.90;;;;;;5032470;28;20552;-72
2022/07/17 08:13:04;;;;;;;0.20;0.20;;;20.40;99.90;;;;;;5031266;28;20194;-72
2022/07/17 08:15:30;;;;;;;0.20;0.20;;;20.20;99.90;;;;;;5032409;28;20205;-72
2022/07/17 08:17:56;;;;;;;0.32;0.32;;;20.00;99.90;;;;;;5032797;28;20205;-73
2022/07/17 08:20:22;;;;;;;0.20;0.20;;;20.10;99.90;;;;;;5032418;28;20202;-73
2022/07/17 08:22:49;;;;;;;0.20;0.20;;;20.30;99.90;;;;;;5032924;28;20553;-72
2022/07/17 08:25:15;;;;;;;0.20;0.20;;;20.50;99.90;;;;;;5030773;28;20320;-73
2022/07/17 08:27:42;;;;;;;0.20;0.20;;;20.70;99.90;;;;;;5052409;28;20193;-73
2022/07/17 08:30:10;;;;;;;0.30;0.30;;;20.80;99.90;;;;;;5051909;28;20300;-73
2022/07/17 08:32:38;;;;;;;10.13;0.40;;;21.00;99.90;;;;;;5050463;28;20256;-72
2022/07/17 08:35:04;;;;;;;0.17;0.17;;;21.20;99.90;;;;;;5051093;28;20194;-72
2022/07/17 08:37:30;;;;;;;0.20;0.20;;;21.60;99.90;;;;;;5052631;28;20189;-72
2022/07/17 08:39:56;;;;;;;0.20;0.20;;;21.70;99.90;;;;;;5066846;28;20260;-71
2022/07/17 08:42:22;;;;;;;0.20;0.20;;;22.00;99.90;;;;;;5091853;28;20200;-72
2022/07/17 08:44:48;;;;;;;0.10;0.10;;;22.30;99.90;;;;;;5084685;28;20680;-73
2022/07/17 08:47:15;;;;;;;0.20;0.20;;;22.40;99.20;;;;;;5072043;28;20258;-72
2022/07/17 08:49:46;;;;;;;0.20;0.20;;;22.60;99.30;;;;;;5069904;28;20314;-72
2022/07/17 08:52:13;;;;;;;0.10;0.10;;;22.80;98.00;;;;;;5072037;28;20189;-72
2022/07/17 08:54:39;;;;;;;0.20;0.20;;;22.40;98.10;;;;;;5071485;28;20221;-73
2022/07/17 08:57:05;;;;;;;0.10;0.10;;;22.50;98.60;;;;;;5070577;28;20204;-72
2022/07/17 08:59:31;;;;;;;0.20;0.20;;;22.30;98.40;;;;;;5070680;28;20258;-73
2022/07/17 09:01:59;;;;;;;0.20;0.20;;;22.00;98.10;;;;;;5070637;28;20476;-73
2022/07/17 09:04:24;;;;;;;0.20;0.20;;;22.30;98.80;;;;;;5071876;28;20747;-73
2022/07/17 09:07:02;;;;;;;0.22;0.22;;;22.60;97.80;;;;;;5057593;28;20237;-73
2022/07/17 09:09:28;;;;;;;0.10;0.10;;;22.30;97.10;;;;;;5054705;28;20219;-73
2022/07/17 09:11:55;;;;;;;0.20;0.20;;;21.90;96.40;;;;;;5070959;28;20197;-73
2022/07/17 09:14:21;;;;;;;0.20;0.20;;;21.50;97.70;;;;;;5075658;28;20203;-72
2022/07/17 09:16:59;;;;;;;0.10;0.10;;;21.60;99.00;;;;;;5076542;28;20651;-73
2022/07/17 09:19:35;;;;;;;0.15;0.15;;;21.90;98.40;;;;;;5075432;28;20202;-73
2022/07/17 09:22:22;;;;;;;0.10;0.10;;;21.90;96.10;;;;;;5074112;28;20197;-72
2022/07/17 09:24:49;;;;;;;0.32;0.20;;;22.10;97.00;;;;;;5069224;28;20225;-72
2022/07/17 09:27:35;;;;;;;0.13;0.13;;;22.20;94.70;;;;;;5055490;28;20201;-72
2022/07/17 09:30:04;;;;;;;0.20;0.20;;;22.10;96.00;;;;;;5038346;28;20279;-72
2022/07/17 09:32:34;;;;;;;0.10;0.10;;;22.30;95.70;;;;;;5017598;28;20709;-72
2022/07/17 09:35:02;;;;;;;0.10;0.10;;;22.70;94.30;;;;;;5035738;28;20191;-72
2022/07/17 09:37:29;;;;;;;0.10;0.10;;;22.90;95.60;;;;;;5053043;28;20204;-73
2022/07/17 09:39:56;;;;;;;0.10;0.10;;;23.30;95.70;;;;;;5055068;28;20813;-72
2022/07/17 09:42:32;;;;;;;0.10;0.10;;;23.50;95.20;;;;;;5036622;28;20202;-73
2022/07/17 09:45:09;;;;;;;0.20;0.20;;;24.20;94.30;;;;;;5048097;28;20204;-72
2022/07/17 09:47:37;;;;;;;0.10;0.10;;;24.40;92.70;;;;;;5037097;28;20201;-73
2022/07/17 09:50:05;;;;;;;0.10;0.10;;;24.70;92.80;;;;;;5037295;28;20304;-73
2022/07/17 09:52:34;;;;;;;0.65;0.20;;;24.50;90.40;;;;;;5036761;28;20229;-73
2022/07/17 09:55:01;;;;;;;0.20;0.20;;;24.00;91.90;;;;;;5055118;28;20178;-73
2022/07/17 09:57:30;;;;;;;0.10;0.10;;;23.30;92.50;;;;;;5054872;28;20272;-73
2022/07/17 10:00:00;;;;;;;0.10;0.10;;;23.70;94.10;;;;;;5054550;28;20276;-73
2022/07/17 10:02:26;;;;;;;0.10;0.10;;;23.80;91.30;;;;;;5036014;28;20220;-72
2022/07/17 10:04:52;;;;;;;0.95;0.17;;;23.80;91.30;;;;;;5055456;28;20652;-73
2022/07/17 10:07:19;;;;;;;0.17;0.17;;;23.50;92.20;;;;;;5054314;28;20193;-73
2022/07/17 10:09:46;;;;;;;0.20;0.20;;;23.60;93.50;;;;;;5054862;28;20251;-73
2022/07/17 10:12:13;;;;;;;0.20;0.20;;;23.40;93.00;;;;;;5054778;28;20601;-74
2022/07/17 10:14:41;;;;;;;0.20;0.20;;;22.90;92.40;;;;;;5036631;28;20566;-72
2022/07/17 10:17:11;;;;;;;0.10;0.10;;;22.60;93.90;;;;;;5054553;28;20218;-73
2022/07/17 10:19:56;;;;;;;0.20;0.20;;;22.40;94.80;;;;;;5036092;28;20296;-73
2022/07/17 10:22:24;;;;;;;0.17;0.17;;;22.80;94.50;;;;;;5036326;28;20201;-73
2022/07/17 10:25:04;;;;;;;0.10;0.10;;;23.40;94.50;;;;;;5048048;28;20260;-73
2022/07/17 10:27:30;;;;;;;0.20;0.20;;;23.60;92.10;;;;;;5034757;28;20723;-73
2022/07/17 10:30:08;;;;;;;0.13;0.13;;;23.50;94.20;;;;;;5034229;28;20202;-73
2022/07/17 10:32:35;;;;;;;0.20;0.20;;;23.40;93.00;;;;;;5034085;28;20237;-73
2022/07/17 10:35:06;;;;;;;0.20;0.20;;;23.10;94.70;;;;;;5034718;28;20256;-73
2022/07/17 10:37:33;;;;;;;0.10;0.10;;;23.00;94.90;;;;;;5033657;28;20783;-73
2022/07/17 10:40:00;;;;;;;0.10;0.10;;;22.90;95.10;;;;;;5036907;28;20248;-73
2022/07/17 10:42:47;;;;;;;0.15;0.15;;;22.60;95.60;;;;;;5053965;28;20221;-73
2022/07/17 10:45:20;;;;;;;0.25;0.25;;;22.50;95.90;;;;;;5053738;28;20202;-73
2022/07/17 10:47:47;;;;;;;0.20;0.20;;;22.60;95.00;;;;;;5054058;28;20589;-74
2022/07/17 10:50:14;;;;;;;0.20;0.20;;;22.70;95.50;;;;;;5053861;28;20216;-73
2022/07/17 10:52:39;;;;;;;0.10;0.10;;;23.20;95.00;;;;;;5053648;28;20200;-73
2022/07/17 10:55:17;;;;;;;0.10;0.10;;;23.60;92.60;;;;;;5053535;28;20668;-73
2022/07/17 10:57:43;;;;;;;0.10;0.10;;;23.80;93.60;;;;;;5053456;28;20255;-73
2022/07/17 11:00:11;;;;;;;0.10;0.10;;;24.10;94.90;;;;;;5035526;28;20201;-73
2022/07/17 11:02:37;;;;;;;0.10;0.10;;;24.60;94.50;;;;;;5026565;28;20202;-75
2022/07/17 11:05:07;;;;;;;0.10;0.10;;;24.80;91.60;;;;;;5015961;28;20595;-73
2022/07/17 11:07:32;;;;;;;0.17;0.17;;;25.20;91.30;;;;;;5031883;28;20258;-73
2022/07/17 11:09:58;;;;;;;0.10;0.10;;;25.40;90.70;;;;;;5032991;28;20210;-73
2022/07/17 11:12:33;;;;;;;0.10;0.10;;;25.50;92.70;;;;;;5033856;28;20198;-73
2022/07/17 11:15:03;;;;;;;0.10;0.10;;;26.00;91.60;;;;;;5033882;28;20185;-73
2022/07/17 11:17:29;;;;;;;0.10;0.10;;;25.90;89.40;;;;;;5015654;28;20194;-73
2022/07/17 11:19:55;;;;;;;0.20;0.20;;;25.80;88.50;;;;;;5015539;28;20212;-73
2022/07/17 11:22:24;;;;;;;0.10;0.10;;;25.50;87.80;;;;;;5033312;28;20282;-73
2022/07/17 11:24:51;;;;;;;0.10;0.10;;;25.60;90.40;;;;;;5033310;28;20233;-73
2022/07/17 11:27:28;;;;;;;0.10;0.10;;;25.40;86.50;;;;;;5033370;28;20194;-73
2022/07/17 11:29:55;;;;;;;0.20;0.20;;;24.60;87.40;;;;;;5029371;28;20214;-73
2022/07/17 11:32:21;;;;;;;0.10;0.10;;;23.90;90.60;;;;;;5033124;28;20248;-73
2022/07/17 11:34:47;;;;;;;0.25;0.20;;;23.70;92.40;;;;;;5050570;28;20604;-73
2022/07/17 11:37:13;;;;;;;0.10;0.10;;;23.90;93.10;;;;;;5042039;28;20748;-73
2022/07/17 11:39:49;;;;;;;0.10;0.10;;;24.20;92.30;;;;;;5032836;28;20654;-73
2022/07/17 11:42:19;;;;;;;0.10;0.10;;;24.80;92.60;;;;;;5015621;28;20296;-73
2022/07/17 11:44:46;;;;;;;0.32;0.22;;;25.40;88.60;;;;;;5033431;28;20198;-73
2022/07/17 11:47:22;;;;;;;0.40;0.30;;;24.70;91.40;;;;;;5032689;28;20288;-73
2022/07/17 11:49:47;;;;;;;0.20;0.20;;;25.10;92.60;;;;;;5032717;28;20664;-73
2022/07/17 11:52:15;;;;;;;0.10;0.10;;;25.90;92.60;;;;;;5015358;28;20340;-73
2022/07/17 11:54:54;;;;;;;0.22;0.22;;;25.80;87.20;;;;;;5014414;28;20190;-73
2022/07/17 11:57:20;;;;;;;0.10;0.10;;;26.20;89.90;;;;;;5014868;28;20194;-72
2022/07/17 11:59:47;;;;;;;0.10;0.10;;;26.00;90.10;;;;;;5014602;28;20201;-73
2022/07/17 12:02:22;;;;;;;0.20;0.20;;;25.90;88.00;;;;;;5032636;28;20198;-73
2022/07/17 12:05:08;;;;;;;0.10;0.10;;;25.20;90.50;;;;;;5032945;28;20746;-73
2022/07/17 12:07:47;;;;;;;0.10;0.10;;;24.80;89.60;;;;;;5014538;28;20261;-73
2022/07/17 12:10:13;;;;;;;0.85;0.50;;;24.60;91.80;;;;;;5032917;28;20186;-73
2022/07/17 12:12:40;;;;;;;0.15;0.15;;;24.30;90.50;;;;;;5032390;28;20198;-73
2022/07/17 12:15:06;;;;;;;0.10;0.10;;;23.90;92.00;;;;;;5014365;28;20197;-73
2022/07/17 12:17:40;;;;;;;0.10;0.10;;;23.90;91.80;;;;;;5031629;28;20830;-73
2022/07/17 12:20:08;;;;;;;0.10;0.10;;;24.10;92.70;;;;;;5032264;28;20655;-73
2022/07/17 12:22:47;;;;;;;0.17;0.17;;;24.40;92.70;;;;;;5032481;28;20700;-73
2022/07/17 12:25:24;;;;;;;0.10;0.10;;;24.70;91.60;;;;;;5041799;28;20225;-73
2022/07/17 12:27:50;;;;;;;0.10;0.10;;;24.80;92.10;;;;;;5052181;28;20706;-73
2022/07/17 12:30:16;;;;;;;0.10;0.10;;;24.70;92.30;;;;;;5033627;28;20672;-73
2022/07/17 12:32:42;;;;;;;0.30;0.30;;;24.10;91.70;;;;;;5046967;28;20186;-73
2022/07/17 12:35:09;;;;;;;0.20;0.20;;;23.90;93.10;;;;;;5014113;28;20733;-73
2022/07/17 12:37:34;;;;;;;0.20;0.20;;;23.70;92.30;;;;;;5013774;28;20193;-73
2022/07/17 12:40:00;;;;;;;0.20;0.20;;;23.60;93.30;;;;;;5032010;28;20201;-73
2022/07/17 12:42:26;;;;;;;0.10;0.10;;;23.70;93.00;;;;;;5013888;28;20194;-73
2022/07/17 12:44:51;;;;;;;0.10;0.10;;;23.60;93.40;;;;;;5014019;28;20202;-71
2022/07/17 12:47:17;;;;;;;0.17;0.17;;;23.70;93.30;;;;;;5033888;28;20523;-73
2022/07/17 12:49:43;;;;;;;0.20;0.20;;;23.70;92.50;;;;;;5036161;28;20613;-73